Briefing drone pour Aix-les-bains

Rechercher une autre localisation

Conditions de vol :


Nous sommes le : Jeudi 09 février 2023
Il est 00:06 UTC (01:06 LT)

Lever de soleil : 06:21 UTC (07:21 LT)
Coucher de soleil : 17:19 UTC (18:19 LT)

Météo

L'essentiel des conditions de vol

VIGILANCE MÉTÉO FRANCE - Savoie (73)
Pas de vigilances particulieres
CARTE TEMSI
CARTES DES FRONTS
METAR de LFLB
LFLB 090000Z AUTO 12002KT 5000 BR NSC M03/M04 Q1033

Date d'émission: 09/02/2023
Heure d'émission: 00:00 UTC
Vent: 120° pour 2 KT (4 km/h)
Visibilité horizontale: 5000 m
Plafond : Pas de nuages significatifs (NSC)
Température: -3 °C
Point de rosée: -4 °C
Humidité: 93%
Pression (QNH): 1033 hPa
Conditions: Brume
TAF de LFLB
LFLB 082014Z 0820/0915 CNL

Conditions prévues :

Heure d'émission : Bulletin éffectué le 08 à 20:00 UTC
Prévision : Valide du 08 a 20:00 UTC au 09 a 15:00 UTC
Nuages : à 0ft (0 m)
WEBCAM POUR AIX-LES-BAINS

Réglementation

Voler en sécurité

CARTES AERONAUTIQUE 1/500.000
CARTE AZBA (Reseau basse altitude)
CARTES VAC (LFLB)
SUP AIP




Chargement des AIP...
NOTAM (AIX-LES-BAINS + Terrain à proximité / FIR )




Chargement des NOTAMS...
CONTACT PREFECTURE 73
Savoie (73) : [email protected]


Avertissement : Les données mises à disposition sont indicatives. Oxygène Drone ne pourra être tenu responsable de dégâts causés aux biens et aux personnes.